Aktualne dane pomiarowe

Uwaga, wersja testowa! Automatyczne pobieranie danych za pomocą narzędzi lub skryptów to umożliwiających jest zabronione.

Dane meteo z obszaru Polski uzyskane na podstawie depesz SYNOP pobieranych co godzinę z NWS. Najedź myszką na symbol przedstawiony w tabeli, aby uzyskać informacje co do jego znaczenia. Prosimy pamiętać, że to testowa wersja strony, która jeszcze nie jest ukończona. Stworzono również jest krótki FAQ dotyczący korzystania z tej podstrony Anomalie temperatury w chwili obecnej odniesione są do okresu referencyjnego 1951-2016. Okres ten będzie później zmieniony na 1981-2010. Kliknij ikonę aby pobrać plik CSV. Kliknij ikonę aby wygenerować mapę synoptyczną dla danego terminu.

Wybierz Datę:    

        

Przemyśl (12695)

Dane terminowe dla wybranej stacji. Kliknij datę, aby otrzymać dane z tego terminu dla wszystkich stacji.

TemperaturaZachmurzenieWiatrCiśnienieOpadyPogoda
 Data t td wb tx tn tg rh  Nt Nl Cl Cm Ch ws wd g1 g2 wx mslp ppp ch 24h 12h t ww ww w1 w2  
2019-06-19 23:00:00 19.4 17.6 18.1--- 89---0----1012.5 980.1 -0.7---------
2019-06-19 22:00:00 20.2 19.3 19.5--- 95---0----1012.7 980.4 -0.4---------
2019-06-19 21:00:00 20.5 19.5 19.8--- 94---1----1013.2 980.8 0.0---wx-----
2019-06-19 20:00:00 20.6 19.2 19.6--- 92---1----1013.1 980.8 0.2---wx-----
2019-06-19 19:00:00 21.2 18.8 19.5--- 86---1----1013.0 980.8 0.0---wx-----
2019-06-19 18:00:00 22.9 19.1 20.2 25.9 17.0- 79---1----1012.9 980.8 0.4- 0.012wx-----
2019-06-19 17:00:00 23.6 19.2 20.5--- 76---1----1012.6 980.6 -0.9---wx-----
2019-06-19 16:00:00 25.0 19.6 21.2--- 72---1----1012.7 980.9 -0.8---wx-----
2019-06-19 15:00:00 25.2 19.6 21.3--- 71---0----1012.2 980.4 -1.6---------
2019-06-19 14:00:00 24.9 19.1 20.9--- 70---2----1013.4 981.6 -1.8---wx-----
2019-06-19 13:00:00 23.0 19.9 20.8--- 83---1----1013.7 981.6 -0.8---wx-----
2019-06-19 12:00:00 23.5 20.6 21.4--- 84---1----1014.1 982.0 -0.8- 0.06wx-----
2019-06-19 11:00:00 20.3 17.3 18.2--- 83---4wx---1015.8 983.3 0.2---wx-----
2019-06-19 10:00:00 24.7 19.6 21.1--- 73---1----1014.4 982.5 -0.8---wx-----
2019-06-19 09:00:00 24.0 19.1 20.6--- 74---0----1014.9 982.9 -0.6---wx-----
2019-06-19 08:00:00 23.6 19.4 20.6--- 77---0----1015.2 983.1 -0.4---------
2019-06-19 07:00:00 21.8 19.2 19.9--- 85---1----1015.6 983.3 -0.4---wx-----
2019-06-19 06:00:00 19.5 18.1 18.5 23.7 17.0 16 92---1----1016.1 983.5 0.0 0.0 0.012wx---- 2.1
2019-06-19 05:00:00 17.6 17.3 17.4--- 98---1----1016.3 983.5 -0.2---wx-----
2019-06-19 04:00:00 17.3 16.9 17.0--- 98---1----1016.4 983.6 0.0---wx-----
2019-06-19 03:00:00 17.0 16.7 16.8--- 98---1----1016.5 983.6 -0.5---wx-----
2019-06-19 02:00:00 17.3 16.8 16.9--- 97---1----1016.5 983.7 -0.8---wx-----
2019-06-19 01:00:00 17.6 16.9 17.1--- 96---2wx---1016.6 983.8 -0.8---wx-----
2019-06-19 00:00:00 18.0 17.0 17.3--- 94---1wx---1016.9 984.2 -0.9- 0.06wx-----
2019-06-18 23:00:00 18.7 17.2 17.6--- 91---1----1017.2 984.5 -0.6---wx-----
2019-06-18 22:00:00 19.2 17.3 17.8--- 89---0----1017.2 984.6 -0.6---------
2019-06-18 21:00:00 19.9 17.4 18.1--- 86---1----1017.6 985.1 0.0---wx-----
2019-06-18 20:00:00 20.5 17.5 18.4--- 83---1----1017.6 985.2 0.0---wx-----
2019-06-18 19:00:00 21.1 17.9 18.8--- 82---2wx---1017.5 985.1 0.0---wx-----
2019-06-18 18:00:00 22.2 18.3 19.5 23.7 16.5- 79---2----1017.5 985.2 -0.5- 0.012wx-----
2019-06-18 17:00:00 22.9 17.9 19.4--- 73---0----1017.4 985.2 -0.7---------
2019-06-18 16:00:00 23.3 17.5 19.3--- 70---2----1017.4 985.2 -1.2---wx-----
2019-06-18 15:00:00 23.3 17.6 19.4--- 70---0----1017.8 985.6 -1.3---------
2019-06-18 14:00:00 23.3 17.6 19.4--- 70---2----1018.2 986.0 -1.4---wx-----
2019-06-18 13:00:00 23.3 17.3 19.2--- 69---1----1018.7 986.5 -1.1---wx-----
2019-06-18 12:00:00 22.6 17.3 19.0--- 72---2----1019.2 986.9 -0.7- 0.06wx-----
2019-06-18 11:00:00 21.9 16.5 18.2--- 71---2----1019.7 987.3 -0.6---wx-----
2019-06-18 10:00:00 21.4 16.6 18.1--- 74---2----1020.0 987.6 -0.5---wx-----
2019-06-18 09:00:00 20.2 15.6 17.1--- 75---3----1020.3 987.7 -0.2---wx-----
2019-06-18 08:00:00 19.7 15.5 16.8--- 77---3----1020.7 988.0 0.3---wx-----
2019-06-18 07:00:00 18.6 15.8 16.6--- 84---0----1020.8 988.0 0.6---------
2019-06-18 06:00:00 18.0 15.2 16.1 21.0 16.5 16 84---2----1020.8 987.9 0.4 0.0 0.012wx---- 4.8
2019-06-18 05:00:00 17.6 15.4 16.0--- 87---2----1020.6 987.7 0.3---wx-----
2019-06-18 04:00:00 16.7 15.0 15.5--- 90---2----1020.4 987.4 0.0---wx-----
2019-06-18 03:00:00 16.6 14.8 15.3--- 89---1----1020.5 987.5 -0.4---wx-----
2019-06-18 02:00:00 16.6 14.7 15.3--- 89---0----1020.4 987.4 -0.5---------
2019-06-18 01:00:00 16.9 14.3 15.1--- 85---0----1020.4 987.4 -0.3---------
2019-06-18 00:00:00 16.6 15.0 15.5--- 90---2wx---1020.9 987.9 0.0- 0.06wx-----
1.9 ms

 

Print Friendly, PDF & Email